sensor_id;sensor_type;location;lat;lon;timestamp;P1;durP1;ratioP1;P2;durP2;ratioP2
38435;SDS011;24220;48.168;14.024;2023-04-24T00:01:37;1.45;;;1.30;;
38435;SDS011;24220;48.168;14.024;2023-04-24T00:04:06;2.55;;;1.50;;
38435;SDS011;24220;48.168;14.024;2023-04-24T00:06:37;2.72;;;1.42;;
38435;SDS011;24220;48.168;14.024;2023-04-24T00:09:05;4.03;;;1.40;;
38435;SDS011;24220;48.168;14.024;2023-04-24T00:11:32;2.88;;;1.60;;
38435;SDS011;24220;48.168;14.024;2023-04-24T00:13:59;2.45;;;1.42;;
38435;SDS011;24220;48.168;14.024;2023-04-24T00:16:27;1.92;;;1.33;;
38435;SDS011;24220;48.168;14.024;2023-04-24T00:18:54;1.33;;;1.13;;
38435;SDS011;24220;48.168;14.024;2023-04-24T00:21:24;1.67;;;1.20;;
38435;SDS011;24220;48.168;14.024;2023-04-24T00:23:54;1.40;;;1.10;;
38435;SDS011;24220;48.168;14.024;2023-04-24T00:26:21;2.05;;;1.10;;
38435;SDS011;24220;48.168;14.024;2023-04-24T00:28:49;2.63;;;1.48;;
38435;SDS011;24220;48.168;14.024;2023-04-24T00:31:17;1.30;;;1.00;;
38435;SDS011;24220;48.168;14.024;2023-04-24T00:33:44;2.63;;;1.30;;
38435;SDS011;24220;48.168;14.024;2023-04-24T00:36:16;1.95;;;1.13;;
38435;SDS011;24220;48.168;14.024;2023-04-24T00:38:48;3.40;;;1.27;;
38435;SDS011;24220;48.168;14.024;2023-04-24T00:41:15;2.10;;;1.20;;
38435;SDS011;24220;48.168;14.024;2023-04-24T00:43:43;2.22;;;1.10;;
38435;SDS011;24220;48.168;14.024;2023-04-24T00:46:12;1.17;;;1.05;;
38435;SDS011;24220;48.168;14.024;2023-04-24T00:48:45;1.30;;;1.10;;
38435;SDS011;24220;48.168;14.024;2023-04-24T00:51:12;1.35;;;0.95;;
38435;SDS011;24220;48.168;14.024;2023-04-24T00:53:40;1.85;;;1.15;;
38435;SDS011;24220;48.168;14.024;2023-04-24T00:56:07;1.75;;;1.10;;
38435;SDS011;24220;48.168;14.024;2023-04-24T00:58:34;2.28;;;1.25;;
38435;SDS011;24220;48.168;14.024;2023-04-24T01:01:04;1.88;;;1.20;;
38435;SDS011;24220;48.168;14.024;2023-04-24T01:06:04;1.45;;;1.10;;
38435;SDS011;24220;48.168;14.024;2023-04-24T01:08:32;1.17;;;1.08;;
38435;SDS011;24220;48.168;14.024;2023-04-24T01:11:01;1.42;;;1.00;;
38435;SDS011;24220;48.168;14.024;2023-04-24T01:13:31;1.33;;;0.93;;
38435;SDS011;24220;48.168;14.024;2023-04-24T01:15:59;1.98;;;1.02;;
38435;SDS011;24220;48.168;14.024;2023-04-24T01:18:29;2.33;;;1.25;;
38435;SDS011;24220;48.168;14.024;2023-04-24T01:20:59;0.80;;;0.80;;
38435;SDS011;24220;48.168;14.024;2023-04-24T01:23:32;1.30;;;1.00;;
38435;SDS011;24220;48.168;14.024;2023-04-24T01:26:00;1.20;;;1.02;;
38435;SDS011;24220;48.168;14.024;2023-04-24T01:28:27;0.98;;;0.88;;
38435;SDS011;24220;48.168;14.024;2023-04-24T01:30:55;0.90;;;0.68;;
38435;SDS011;24220;48.168;14.024;2023-04-24T01:33:22;1.67;;;1.10;;
38435;SDS011;24220;48.168;14.024;2023-04-24T01:35:50;1.88;;;1.00;;
38435;SDS011;24220;48.168;14.024;2023-04-24T01:38:20;1.77;;;0.95;;
38435;SDS011;24220;48.168;14.024;2023-04-24T01:40:47;1.13;;;0.80;;
38435;SDS011;24220;48.168;14.024;2023-04-24T01:43:14;1.35;;;0.90;;
38435;SDS011;24220;48.168;14.024;2023-04-24T01:45:42;0.80;;;0.80;;
38435;SDS011;24220;48.168;14.024;2023-04-24T01:48:09;1.50;;;0.80;;
38435;SDS011;24220;48.168;14.024;2023-04-24T01:50:39;1.10;;;0.90;;
38435;SDS011;24220;48.168;14.024;2023-04-24T01:53:06;1.55;;;0.90;;
38435;SDS011;24220;48.168;14.024;2023-04-24T01:55:34;0.90;;;0.90;;
38435;SDS011;24220;48.168;14.024;2023-04-24T01:58:01;1.55;;;0.95;;
38435;SDS011;24220;48.168;14.024;2023-04-24T02:00:28;3.13;;;1.40;;
38435;SDS011;24220;48.168;14.024;2023-04-24T02:02:56;1.00;;;0.90;;
38435;SDS011;24220;48.168;14.024;2023-04-24T02:05:23;1.25;;;1.00;;
38435;SDS011;24220;48.168;14.024;2023-04-24T02:07:53;1.10;;;1.00;;
38435;SDS011;24220;48.168;14.024;2023-04-24T02:10:23;1.15;;;0.70;;
38435;SDS011;24220;48.168;14.024;2023-04-24T02:12:51;1.23;;;1.00;;
38435;SDS011;24220;48.168;14.024;2023-04-24T02:15:19;1.05;;;1.05;;
38435;SDS011;24220;48.168;14.024;2023-04-24T02:17:46;1.10;;;1.00;;
38435;SDS011;24220;48.168;14.024;2023-04-24T02:20:14;1.35;;;1.05;;
38435;SDS011;24220;48.168;14.024;2023-04-24T02:22:41;1.98;;;1.30;;
38435;SDS011;24220;48.168;14.024;2023-04-24T02:25:08;1.58;;;1.20;;
38435;SDS011;24220;48.168;14.024;2023-04-24T02:27:36;2.03;;;1.80;;
38435;SDS011;24220;48.168;14.024;2023-04-24T02:30:03;3.53;;;1.23;;
38435;SDS011;24220;48.168;14.024;2023-04-24T02:32:34;3.53;;;1.40;;
38435;SDS011;24220;48.168;14.024;2023-04-24T02:35:01;1.75;;;1.17;;
38435;SDS011;24220;48.168;14.024;2023-04-24T02:37:31;4.32;;;1.73;;
38435;SDS011;24220;48.168;14.024;2023-04-24T02:39:58;2.00;;;1.50;;
38435;SDS011;24220;48.168;14.024;2023-04-24T02:42:26;1.50;;;1.30;;
38435;SDS011;24220;48.168;14.024;2023-04-24T02:44:53;4.05;;;1.75;;
38435;SDS011;24220;48.168;14.024;2023-04-24T02:47:20;1.77;;;1.20;;
38435;SDS011;24220;48.168;14.024;2023-04-24T02:49:50;1.60;;;1.20;;
38435;SDS011;24220;48.168;14.024;2023-04-24T02:52:17;2.58;;;1.20;;
38435;SDS011;24220;48.168;14.024;2023-04-24T02:54:45;1.65;;;1.10;;
38435;SDS011;24220;48.168;14.024;2023-04-24T02:57:12;2.08;;;1.17;;
38435;SDS011;24220;48.168;14.024;2023-04-24T02:59:42;1.85;;;1.30;;
38435;SDS011;24220;48.168;14.024;2023-04-24T03:02:13;1.42;;;1.30;;
38435;SDS011;24220;48.168;14.024;2023-04-24T03:04:41;1.40;;;1.30;;
38435;SDS011;24220;48.168;14.024;2023-04-24T03:07:11;1.45;;;1.35;;
38435;SDS011;24220;48.168;14.024;2023-04-24T03:09:39;1.65;;;1.42;;
38435;SDS011;24220;48.168;14.024;2023-04-24T03:12:12;2.10;;;1.38;;
38435;SDS011;24220;48.168;14.024;2023-04-24T03:14:43;2.38;;;1.25;;
38435;SDS011;24220;48.168;14.024;2023-04-24T03:17:13;1.48;;;1.25;;
38435;SDS011;24220;48.168;14.024;2023-04-24T03:19:40;2.65;;;1.20;;
38435;SDS011;24220;48.168;14.024;2023-04-24T03:22:08;1.30;;;1.15;;
38435;SDS011;24220;48.168;14.024;2023-04-24T03:24:35;3.00;;;1.10;;
38435;SDS011;24220;48.168;14.024;2023-04-24T03:27:03;1.73;;;1.20;;
38435;SDS011;24220;48.168;14.024;2023-04-24T03:29:30;1.25;;;1.00;;
38435;SDS011;24220;48.168;14.024;2023-04-24T03:31:57;1.23;;;1.10;;
38435;SDS011;24220;48.168;14.024;2023-04-24T03:34:25;1.58;;;1.10;;
38435;SDS011;24220;48.168;14.024;2023-04-24T03:36:55;1.80;;;1.08;;
38435;SDS011;24220;48.168;14.024;2023-04-24T03:39:22;1.17;;;1.00;;
38435;SDS011;24220;48.168;14.024;2023-04-24T03:41:49;1.48;;;1.20;;
38435;SDS011;24220;48.168;14.024;2023-04-24T03:44:17;1.50;;;1.40;;
38435;SDS011;24220;48.168;14.024;2023-04-24T03:46:44;1.40;;;1.30;;
38435;SDS011;24220;48.168;14.024;2023-04-24T03:49:13;2.78;;;1.52;;
38435;SDS011;24220;48.168;14.024;2023-04-24T03:51:43;1.75;;;1.30;;
38435;SDS011;24220;48.168;14.024;2023-04-24T03:56:40;1.58;;;1.23;;
38435;SDS011;24220;48.168;14.024;2023-04-24T03:59:07;1.50;;;1.38;;
38435;SDS011;24220;48.168;14.024;2023-04-24T04:01:34;1.42;;;1.30;;
38435;SDS011;24220;48.168;14.024;2023-04-24T04:04:09;1.40;;;1.15;;
38435;SDS011;24220;48.168;14.024;2023-04-24T04:06:36;1.27;;;1.17;;
38435;SDS011;24220;48.168;14.024;2023-04-24T04:09:06;1.30;;;1.20;;
38435;SDS011;24220;48.168;14.024;2023-04-24T04:11:36;1.20;;;1.10;;
38435;SDS011;24220;48.168;14.024;2023-04-24T04:14:03;1.83;;;1.20;;
38435;SDS011;24220;48.168;14.024;2023-04-24T04:16:30;2.72;;;1.50;;
38435;SDS011;24220;48.168;14.024;2023-04-24T04:18:58;2.00;;;1.25;;
38435;SDS011;24220;48.168;14.024;2023-04-24T04:21:25;1.65;;;1.08;;
38435;SDS011;24220;48.168;14.024;2023-04-24T04:23:54;1.10;;;0.98;;
38435;SDS011;24220;48.168;14.024;2023-04-24T04:26:21;1.65;;;1.35;;
38435;SDS011;24220;48.168;14.024;2023-04-24T04:28:52;1.20;;;0.93;;
38435;SDS011;24220;48.168;14.024;2023-04-24T04:31:20;1.30;;;1.20;;
38435;SDS011;24220;48.168;14.024;2023-04-24T04:33:48;1.20;;;1.10;;
38435;SDS011;24220;48.168;14.024;2023-04-24T04:36:17;2.35;;;0.90;;
38435;SDS011;24220;48.168;14.024;2023-04-24T04:38:45;1.05;;;0.95;;
38435;SDS011;24220;48.168;14.024;2023-04-24T04:41:15;1.20;;;1.10;;
38435;SDS011;24220;48.168;14.024;2023-04-24T04:43:43;0.93;;;0.90;;
38435;SDS011;24220;48.168;14.024;2023-04-24T04:46:14;1.37;;;0.80;;
38435;SDS011;24220;48.168;14.024;2023-04-24T04:48:41;0.98;;;0.90;;
38435;SDS011;24220;48.168;14.024;2023-04-24T04:51:09;1.42;;;1.00;;
38435;SDS011;24220;48.168;14.024;2023-04-24T04:53:37;1.17;;;0.88;;
38435;SDS011;24220;48.168;14.024;2023-04-24T04:56:04;1.33;;;0.70;;
38435;SDS011;24220;48.168;14.024;2023-04-24T04:58:34;0.75;;;0.75;;
38435;SDS011;24220;48.168;14.024;2023-04-24T05:01:02;0.65;;;0.65;;
38435;SDS011;24220;48.168;14.024;2023-04-24T05:03:29;1.45;;;0.75;;
38435;SDS011;24220;48.168;14.024;2023-04-24T05:05:59;1.00;;;0.55;;
38435;SDS011;24220;48.168;14.024;2023-04-24T05:08:29;2.13;;;0.80;;
38435;SDS011;24220;48.168;14.024;2023-04-24T05:10:56;1.80;;;0.70;;
38435;SDS011;24220;48.168;14.024;2023-04-24T05:13:26;2.15;;;0.70;;
38435;SDS011;24220;48.168;14.024;2023-04-24T05:16:08;0.80;;;0.77;;
38435;SDS011;24220;48.168;14.024;2023-04-24T05:18:36;1.67;;;1.00;;
38435;SDS011;24220;48.168;14.024;2023-04-24T05:21:04;1.13;;;1.00;;
38435;SDS011;24220;48.168;14.024;2023-04-24T05:23:31;1.92;;;1.00;;
38435;SDS011;24220;48.168;14.024;2023-04-24T05:25:59;1.75;;;1.10;;
38435;SDS011;24220;48.168;14.024;2023-04-24T05:28:26;1.98;;;0.90;;
38435;SDS011;24220;48.168;14.024;2023-04-24T05:30:55;0.80;;;0.80;;
38435;SDS011;24220;48.168;14.024;2023-04-24T05:33:22;1.90;;;1.40;;
38435;SDS011;24220;48.168;14.024;2023-04-24T05:35:50;1.30;;;1.20;;
38435;SDS011;24220;48.168;14.024;2023-04-24T05:38:17;1.23;;;1.00;;
38435;SDS011;24220;48.168;14.024;2023-04-24T05:40:48;1.60;;;1.00;;
38435;SDS011;24220;48.168;14.024;2023-04-24T05:43:16;4.03;;;1.10;;
38435;SDS011;24220;48.168;14.024;2023-04-24T05:45:43;2.28;;;0.93;;
38435;SDS011;24220;48.168;14.024;2023-04-24T05:48:13;3.53;;;1.48;;
38435;SDS011;24220;48.168;14.024;2023-04-24T05:50:42;3.10;;;2.25;;
38435;SDS011;24220;48.168;14.024;2023-04-24T05:53:10;1.08;;;1.02;;
38435;SDS011;24220;48.168;14.024;2023-04-24T05:55:39;0.82;;;0.80;;
38435;SDS011;24220;48.168;14.024;2023-04-24T05:58:07;1.25;;;0.85;;
38435;SDS011;24220;48.168;14.024;2023-04-24T06:00:34;1.02;;;0.70;;
38435;SDS011;24220;48.168;14.024;2023-04-24T06:03:06;1.60;;;1.13;;
38435;SDS011;24220;48.168;14.024;2023-04-24T06:05:36;0.73;;;0.73;;
38435;SDS011;24220;48.168;14.024;2023-04-24T06:08:04;1.17;;;0.80;;
38435;SDS011;24220;48.168;14.024;2023-04-24T06:10:33;1.20;;;1.10;;
38435;SDS011;24220;48.168;14.024;2023-04-24T06:13:03;0.82;;;0.77;;
38435;SDS011;24220;48.168;14.024;2023-04-24T06:15:31;1.38;;;1.10;;
38435;SDS011;24220;48.168;14.024;2023-04-24T06:17:58;1.60;;;0.98;;
38435;SDS011;24220;48.168;14.024;2023-04-24T06:20:28;3.38;;;1.00;;
38435;SDS011;24220;48.168;14.024;2023-04-24T06:22:56;1.67;;;1.00;;
38435;SDS011;24220;48.168;14.024;2023-04-24T06:25:26;1.13;;;1.00;;
38435;SDS011;24220;48.168;14.024;2023-04-24T06:27:54;2.40;;;1.10;;
38435;SDS011;24220;48.168;14.024;2023-04-24T06:30:22;1.73;;;1.10;;
38435;SDS011;24220;48.168;14.024;2023-04-24T06:32:50;1.35;;;1.00;;
38435;SDS011;24220;48.168;14.024;2023-04-24T06:35:17;3.10;;;1.15;;
38435;SDS011;24220;48.168;14.024;2023-04-24T06:37:45;1.73;;;1.30;;
38435;SDS011;24220;48.168;14.024;2023-04-24T06:40:12;4.13;;;1.52;;
38435;SDS011;24220;48.168;14.024;2023-04-24T06:42:39;2.63;;;1.30;;
38435;SDS011;24220;48.168;14.024;2023-04-24T06:45:07;1.48;;;1.15;;
38435;SDS011;24220;48.168;14.024;2023-04-24T06:47:34;1.45;;;1.27;;
38435;SDS011;24220;48.168;14.024;2023-04-24T06:50:04;1.95;;;1.30;;
38435;SDS011;24220;48.168;14.024;2023-04-24T06:52:32;2.83;;;1.65;;
38435;SDS011;24220;48.168;14.024;2023-04-24T06:55:00;1.45;;;1.30;;
38435;SDS011;24220;48.168;14.024;2023-04-24T06:57:33;3.63;;;1.90;;
38435;SDS011;24220;48.168;14.024;2023-04-24T07:00:00;1.20;;;1.10;;
38435;SDS011;24220;48.168;14.024;2023-04-24T07:02:28;2.67;;;1.20;;
38435;SDS011;24220;48.168;14.024;2023-04-24T07:04:56;1.40;;;1.25;;
38435;SDS011;24220;48.168;14.024;2023-04-24T07:07:25;3.67;;;1.50;;
38435;SDS011;24220;48.168;14.024;2023-04-24T07:09:53;1.92;;;1.50;;
38435;SDS011;24220;48.168;14.024;2023-04-24T07:12:20;3.65;;;1.60;;
38435;SDS011;24220;48.168;14.024;2023-04-24T07:14:48;1.92;;;1.45;;
38435;SDS011;24220;48.168;14.024;2023-04-24T07:17:17;3.15;;;1.70;;
38435;SDS011;24220;48.168;14.024;2023-04-24T07:19:44;4.10;;;1.30;;
38435;SDS011;24220;48.168;14.024;2023-04-24T07:22:17;2.30;;;1.58;;
38435;SDS011;24220;48.168;14.024;2023-04-24T07:24:44;2.28;;;1.33;;
38435;SDS011;24220;48.168;14.024;2023-04-24T07:27:11;2.97;;;1.67;;
38435;SDS011;24220;48.168;14.024;2023-04-24T07:29:41;3.15;;;1.30;;
38435;SDS011;24220;48.168;14.024;2023-04-24T07:32:12;1.45;;;1.20;;
38435;SDS011;24220;48.168;14.024;2023-04-24T07:34:40;1.77;;;1.33;;
38435;SDS011;24220;48.168;14.024;2023-04-24T07:37:07;2.83;;;1.30;;
38435;SDS011;24220;48.168;14.024;2023-04-24T07:39:37;2.08;;;1.40;;
38435;SDS011;24220;48.168;14.024;2023-04-24T07:42:04;2.53;;;1.52;;
38435;SDS011;24220;48.168;14.024;2023-04-24T07:44:32;1.70;;;1.30;;
38435;SDS011;24220;48.168;14.024;2023-04-24T07:47:02;1.83;;;1.25;;
38435;SDS011;24220;48.168;14.024;2023-04-24T07:49:29;2.42;;;1.23;;
38435;SDS011;24220;48.168;14.024;2023-04-24T07:51:56;1.63;;;1.20;;
38435;SDS011;24220;48.168;14.024;2023-04-24T07:54:24;1.92;;;1.17;;
38435;SDS011;24220;48.168;14.024;2023-04-24T07:56:51;1.58;;;1.30;;
38435;SDS011;24220;48.168;14.024;2023-04-24T07:59:18;2.95;;;1.30;;
38435;SDS011;24220;48.168;14.024;2023-04-24T08:01:46;3.92;;;1.70;;
38435;SDS011;24220;48.168;14.024;2023-04-24T08:04:15;1.65;;;1.30;;
38435;SDS011;24220;48.168;14.024;2023-04-24T08:06:44;2.28;;;1.30;;
38435;SDS011;24220;48.168;14.024;2023-04-24T08:09:11;1.75;;;1.40;;
38435;SDS011;24220;48.168;14.024;2023-04-24T08:11:39;2.90;;;1.70;;
38435;SDS011;24220;48.168;14.024;2023-04-24T08:14:09;2.58;;;2.38;;
38435;SDS011;24220;48.168;14.024;2023-04-24T08:16:39;2.15;;;1.75;;
38435;SDS011;24220;48.168;14.024;2023-04-24T08:19:08;1.52;;;1.10;;
38435;SDS011;24220;48.168;14.024;2023-04-24T08:21:36;2.38;;;1.08;;
38435;SDS011;24220;48.168;14.024;2023-04-24T08:24:06;2.35;;;1.98;;
38435;SDS011;24220;48.168;14.024;2023-04-24T08:26:35;3.00;;;1.98;;
38435;SDS011;24220;48.168;14.024;2023-04-24T08:29:02;2.25;;;1.40;;
38435;SDS011;24220;48.168;14.024;2023-04-24T08:31:29;1.88;;;1.30;;
38435;SDS011;24220;48.168;14.024;2023-04-24T08:33:57;2.40;;;1.25;;
38435;SDS011;24220;48.168;14.024;2023-04-24T08:36:27;2.03;;;0.90;;
38435;SDS011;24220;48.168;14.024;2023-04-24T08:39:11;1.85;;;0.95;;
38435;SDS011;24220;48.168;14.024;2023-04-24T08:41:39;1.85;;;1.25;;
38435;SDS011;24220;48.168;14.024;2023-04-24T08:44:09;1.07;;;0.97;;
38435;SDS011;24220;48.168;14.024;2023-04-24T08:46:37;1.70;;;1.42;;
38435;SDS011;24220;48.168;14.024;2023-04-24T08:49:07;1.25;;;1.15;;
38435;SDS011;24220;48.168;14.024;2023-04-24T08:51:36;2.35;;;1.15;;
38435;SDS011;24220;48.168;14.024;2023-04-24T08:54:04;1.85;;;1.42;;
38435;SDS011;24220;48.168;14.024;2023-04-24T08:56:34;3.97;;;1.13;;
38435;SDS011;24220;48.168;14.024;2023-04-24T08:59:09;1.88;;;1.00;;
38435;SDS011;24220;48.168;14.024;2023-04-24T09:01:37;2.08;;;1.55;;
38435;SDS011;24220;48.168;14.024;2023-04-24T09:04:09;1.80;;;1.70;;
38435;SDS011;24220;48.168;14.024;2023-04-24T09:06:42;2.75;;;1.88;;
38435;SDS011;24220;48.168;14.024;2023-04-24T09:09:12;2.03;;;0.98;;
38435;SDS011;24220;48.168;14.024;2023-04-24T09:11:39;2.47;;;1.20;;
38435;SDS011;24220;48.168;14.024;2023-04-24T09:14:07;1.50;;;1.13;;
38435;SDS011;24220;48.168;14.024;2023-04-24T09:16:37;1.73;;;1.10;;
38435;SDS011;24220;48.168;14.024;2023-04-24T09:19:06;1.60;;;1.15;;
38435;SDS011;24220;48.168;14.024;2023-04-24T09:21:34;2.45;;;1.80;;
38435;SDS011;24220;48.168;14.024;2023-04-24T09:24:06;2.38;;;1.40;;
38435;SDS011;24220;48.168;14.024;2023-04-24T09:26:44;1.50;;;1.13;;
38435;SDS011;24220;48.168;14.024;2023-04-24T09:29:15;1.33;;;0.85;;
38435;SDS011;24220;48.168;14.024;2023-04-24T09:31:44;1.40;;;1.10;;
38435;SDS011;24220;48.168;14.024;2023-04-24T09:34:12;1.88;;;1.20;;
38435;SDS011;24220;48.168;14.024;2023-04-24T09:36:49;1.92;;;0.95;;
38435;SDS011;24220;48.168;14.024;2023-04-24T09:39:18;1.40;;;1.00;;
38435;SDS011;24220;48.168;14.024;2023-04-24T09:44:21;2.70;;;1.25;;
38435;SDS011;24220;48.168;14.024;2023-04-24T09:46:58;2.80;;;1.77;;
38435;SDS011;24220;48.168;14.024;2023-04-24T09:52:02;1.90;;;1.27;;
38435;SDS011;24220;48.168;14.024;2023-04-24T09:54:31;4.55;;;2.28;;
38435;SDS011;24220;48.168;14.024;2023-04-24T09:57:03;4.13;;;2.05;;
38435;SDS011;24220;48.168;14.024;2023-04-24T09:59:31;2.58;;;1.58;;
38435;SDS011;24220;48.168;14.024;2023-04-24T10:02:03;3.78;;;2.50;;
38435;SDS011;24220;48.168;14.024;2023-04-24T10:04:55;5.38;;;3.17;;
38435;SDS011;24220;48.168;14.024;2023-04-24T10:07:25;4.07;;;2.75;;
38435;SDS011;24220;48.168;14.024;2023-04-24T10:09:53;7.32;;;4.15;;
38435;SDS011;24220;48.168;14.024;2023-04-24T10:12:21;4.95;;;3.53;;
38435;SDS011;24220;48.168;14.024;2023-04-24T10:14:52;3.22;;;1.70;;
38435;SDS011;24220;48.168;14.024;2023-04-24T10:17:23;2.55;;;1.58;;
38435;SDS011;24220;48.168;14.024;2023-04-24T10:19:52;5.32;;;3.50;;
38435;SDS011;24220;48.168;14.024;2023-04-24T10:22:19;4.35;;;2.53;;
38435;SDS011;24220;48.168;14.024;2023-04-24T10:24:49;6.40;;;3.22;;
38435;SDS011;24220;48.168;14.024;2023-04-24T10:27:19;5.47;;;2.45;;
38435;SDS011;24220;48.168;14.024;2023-04-24T10:29:48;2.75;;;1.50;;
38435;SDS011;24220;48.168;14.024;2023-04-24T10:32:17;2.03;;;1.40;;
38435;SDS011;24220;48.168;14.024;2023-04-24T10:34:45;2.15;;;1.10;;
38435;SDS011;24220;48.168;14.024;2023-04-24T10:37:12;1.75;;;1.40;;
38435;SDS011;24220;48.168;14.024;2023-04-24T10:39:45;1.77;;;1.30;;
38435;SDS011;24220;48.168;14.024;2023-04-24T10:42:17;3.63;;;1.60;;
38435;SDS011;24220;48.168;14.024;2023-04-24T10:44:48;6.73;;;3.47;;
38435;SDS011;24220;48.168;14.024;2023-04-24T10:47:16;5.10;;;2.28;;
38435;SDS011;24220;48.168;14.024;2023-04-24T10:49:43;9.85;;;4.10;;
38435;SDS011;24220;48.168;14.024;2023-04-24T10:52:17;2.83;;;2.08;;
38435;SDS011;24220;48.168;14.024;2023-04-24T10:54:45;2.42;;;1.17;;
38435;SDS011;24220;48.168;14.024;2023-04-24T10:59:52;1.15;;;0.95;;
38435;SDS011;24220;48.168;14.024;2023-04-24T11:02:42;0.75;;;0.73;;
38435;SDS011;24220;48.168;14.024;2023-04-24T11:05:16;0.80;;;0.80;;
38435;SDS011;24220;48.168;14.024;2023-04-24T11:11:01;0.85;;;0.77;;
38435;SDS011;24220;48.168;14.024;2023-04-24T11:19:00;1.92;;;0.90;;
38435;SDS011;24220;48.168;14.024;2023-04-24T11:34:56;7.70;;;4.95;;
38435;SDS011;24220;48.168;14.024;2023-04-24T11:37:26;2.17;;;1.02;;
38435;SDS011;24220;48.168;14.024;2023-04-24T11:39:56;1.30;;;0.88;;
38435;SDS011;24220;48.168;14.024;2023-04-24T11:42:25;2.65;;;0.85;;
38435;SDS011;24220;48.168;14.024;2023-04-24T11:44:52;0.80;;;0.80;;
38435;SDS011;24220;48.168;14.024;2023-04-24T11:47:31;1.88;;;0.80;;
38435;SDS011;24220;48.168;14.024;2023-04-24T11:50:03;1.48;;;0.63;;
38435;SDS011;24220;48.168;14.024;2023-04-24T11:52:33;0.55;;;0.50;;
38435;SDS011;24220;48.168;14.024;2023-04-24T11:55:04;0.50;;;0.50;;
38435;SDS011;24220;48.168;14.024;2023-04-24T11:57:33;1.30;;;0.45;;
38435;SDS011;24220;48.168;14.024;2023-04-24T12:00:03;1.80;;;0.50;;
38435;SDS011;24220;48.168;14.024;2023-04-24T12:02:35;4.10;;;0.93;;
38435;SDS011;24220;48.168;14.024;2023-04-24T12:05:05;0.50;;;0.50;;
38435;SDS011;24220;48.168;14.024;2023-04-24T12:07:46;1.00;;;0.40;;
38435;SDS011;24220;48.168;14.024;2023-04-24T12:10:13;2.10;;;1.40;;
38435;SDS011;24220;48.168;14.024;2023-04-24T12:12:43;4.05;;;2.15;;
38435;SDS011;24220;48.168;14.024;2023-04-24T12:15:17;6.35;;;3.05;;
38435;SDS011;24220;48.168;14.024;2023-04-24T12:17:46;2.90;;;1.50;;
38435;SDS011;24220;48.168;14.024;2023-04-24T12:20:14;1.75;;;1.23;;
38435;SDS011;24220;48.168;14.024;2023-04-24T12:25:16;2.58;;;1.60;;
38435;SDS011;24220;48.168;14.024;2023-04-24T12:27:45;1.98;;;1.20;;
38435;SDS011;24220;48.168;14.024;2023-04-24T12:30:21;1.15;;;0.95;;
38435;SDS011;24220;48.168;14.024;2023-04-24T12:32:53;1.08;;;0.98;;
38435;SDS011;24220;48.168;14.024;2023-04-24T12:35:22;1.70;;;0.95;;
38435;SDS011;24220;48.168;14.024;2023-04-24T12:37:51;1.40;;;1.02;;
38435;SDS011;24220;48.168;14.024;2023-04-24T12:40:19;1.52;;;1.00;;
38435;SDS011;24220;48.168;14.024;2023-04-24T12:42:50;1.10;;;1.00;;
38435;SDS011;24220;48.168;14.024;2023-04-24T12:45:18;1.33;;;1.10;;
38435;SDS011;24220;48.168;14.024;2023-04-24T12:47:46;1.52;;;1.10;;
38435;SDS011;24220;48.168;14.024;2023-04-24T12:50:15;1.45;;;1.13;;
38435;SDS011;24220;48.168;14.024;2023-04-24T12:52:43;1.20;;;1.10;;
38435;SDS011;24220;48.168;14.024;2023-04-24T12:55:12;1.48;;;1.17;;
38435;SDS011;24220;48.168;14.024;2023-04-24T12:57:39;2.95;;;1.60;;
38435;SDS011;24220;48.168;14.024;2023-04-24T13:00:07;1.50;;;1.30;;
38435;SDS011;24220;48.168;14.024;2023-04-24T13:02:35;2.10;;;1.73;;
38435;SDS011;24220;48.168;14.024;2023-04-24T13:05:03;2.58;;;1.98;;
38435;SDS011;24220;48.168;14.024;2023-04-24T13:07:33;1.40;;;1.30;;
38435;SDS011;24220;48.168;14.024;2023-04-24T13:10:01;3.65;;;1.85;;
38435;SDS011;24220;48.168;14.024;2023-04-24T13:12:28;1.92;;;1.83;;
38435;SDS011;24220;48.168;14.024;2023-04-24T13:14:55;1.70;;;1.60;;
38435;SDS011;24220;48.168;14.024;2023-04-24T13:17:25;1.33;;;1.20;;
38435;SDS011;24220;48.168;14.024;2023-04-24T13:19:55;1.50;;;1.40;;
38435;SDS011;24220;48.168;14.024;2023-04-24T13:22:22;2.45;;;1.30;;
38435;SDS011;24220;48.168;14.024;2023-04-24T13:24:52;1.48;;;1.30;;
38435;SDS011;24220;48.168;14.024;2023-04-24T13:27:19;1.50;;;1.40;;
38435;SDS011;24220;48.168;14.024;2023-04-24T13:29:47;1.63;;;1.23;;
38435;SDS011;24220;48.168;14.024;2023-04-24T13:32:14;1.88;;;1.40;;
38435;SDS011;24220;48.168;14.024;2023-04-24T13:34:42;1.55;;;1.45;;
38435;SDS011;24220;48.168;14.024;2023-04-24T13:37:09;12.32;;;6.85;;
38435;SDS011;24220;48.168;14.024;2023-04-24T13:39:39;13.90;;;8.60;;
38435;SDS011;24220;48.168;14.024;2023-04-24T13:42:08;19.35;;;12.52;;
38435;SDS011;24220;48.168;14.024;2023-04-24T13:44:35;22.92;;;14.50;;
38435;SDS011;24220;48.168;14.024;2023-04-24T13:47:03;27.50;;;17.50;;
38435;SDS011;24220;48.168;14.024;2023-04-24T13:49:30;25.30;;;19.27;;
38435;SDS011;24220;48.168;14.024;2023-04-24T13:51:57;9.68;;;7.75;;
38435;SDS011;24220;48.168;14.024;2023-04-24T13:54:28;4.25;;;3.50;;
38435;SDS011;24220;48.168;14.024;2023-04-24T13:56:58;4.05;;;3.75;;
38435;SDS011;24220;48.168;14.024;2023-04-24T14:01:59;1.88;;;1.77;;
38435;SDS011;24220;48.168;14.024;2023-04-24T14:04:27;1.45;;;1.35;;
38435;SDS011;24220;48.168;14.024;2023-04-24T14:06:54;1.77;;;1.30;;
38435;SDS011;24220;48.168;14.024;2023-04-24T14:09:22;1.70;;;1.50;;
38435;SDS011;24220;48.168;14.024;2023-04-24T14:11:51;2.13;;;1.50;;
38435;SDS011;24220;48.168;14.024;2023-04-24T14:14:18;2.03;;;1.50;;
38435;SDS011;24220;48.168;14.024;2023-04-24T14:16:45;2.15;;;1.60;;
38435;SDS011;24220;48.168;14.024;2023-04-24T14:19:13;4.38;;;2.13;;
38435;SDS011;24220;48.168;14.024;2023-04-24T14:21:40;8.32;;;3.47;;
38435;SDS011;24220;48.168;14.024;2023-04-24T14:24:07;4.65;;;2.63;;
38435;SDS011;24220;48.168;14.024;2023-04-24T14:26:35;20.83;;;13.82;;
38435;SDS011;24220;48.168;14.024;2023-04-24T14:29:03;5.00;;;4.07;;
38435;SDS011;24220;48.168;14.024;2023-04-24T14:31:41;3.28;;;2.30;;
38435;SDS011;24220;48.168;14.024;2023-04-24T14:34:09;1.88;;;1.35;;
38435;SDS011;24220;48.168;14.024;2023-04-24T14:36:39;1.92;;;1.50;;
38435;SDS011;24220;48.168;14.024;2023-04-24T14:39:07;1.48;;;1.38;;
38435;SDS011;24220;48.168;14.024;2023-04-24T14:41:37;2.17;;;1.50;;
38435;SDS011;24220;48.168;14.024;2023-04-24T14:44:06;1.55;;;1.30;;
38435;SDS011;24220;48.168;14.024;2023-04-24T14:46:38;1.58;;;1.20;;
38435;SDS011;24220;48.168;14.024;2023-04-24T14:49:08;0.90;;;0.85;;
38435;SDS011;24220;48.168;14.024;2023-04-24T14:51:38;1.50;;;1.00;;
38435;SDS011;24220;48.168;14.024;2023-04-24T14:54:09;2.17;;;1.10;;
38435;SDS011;24220;48.168;14.024;2023-04-24T14:56:36;2.95;;;1.08;;
38435;SDS011;24220;48.168;14.024;2023-04-24T14:59:06;1.33;;;1.23;;
38435;SDS011;24220;48.168;14.024;2023-04-24T15:01:34;2.30;;;1.35;;
38435;SDS011;24220;48.168;14.024;2023-04-24T15:04:01;1.63;;;1.27;;
38435;SDS011;24220;48.168;14.024;2023-04-24T15:06:29;1.83;;;1.10;;
38435;SDS011;24220;48.168;14.024;2023-04-24T15:08:58;1.65;;;1.25;;
38435;SDS011;24220;48.168;14.024;2023-04-24T15:11:25;1.80;;;1.25;;
38435;SDS011;24220;48.168;14.024;2023-04-24T15:13:53;1.92;;;1.30;;
38435;SDS011;24220;48.168;14.024;2023-04-24T15:16:21;2.15;;;1.52;;
38435;SDS011;24220;48.168;14.024;2023-04-24T15:18:50;1.67;;;1.42;;
38435;SDS011;24220;48.168;14.024;2023-04-24T15:21:17;1.80;;;1.40;;
38435;SDS011;24220;48.168;14.024;2023-04-24T15:23:49;1.67;;;1.48;;